Teradata Corp (TDC) Latest Bloomsberg Price


Mffais Ranking #2483 Overall / #57 Industry
Industry: Telecom Carriers

Number of Companies: 299 (Ranking #520 Overall/#7 Industry)
Inflow: $ 162,896 (K) (Ranking #709 Overall/#8 Industry)
Outflow: $ -259,583 (K)
Mffais Flow: $ -96,686 (K) (Ranking #2483 Overall/#57 Industry)


Receive a FREE weekly executive review of stocks moving into the top 10, taking the top industy spot or moving up within their industry. Sent directly to your Inbox every Saturday. Sign up today and get last week's review immediately sent to you.

We value and respect your privacy. Please read our Terms and Conditions which states our firm commitment to your privacy. Your email address will not be shared with a third party, nor will it be sold or used for purposes other than subscription for the weekly review.

Owner CPOR Shares Action Qty Chg Invested (K) Total Current Value (K)
Fiera Capital Corp 2016-09-30 1,020,745 New Holding 1,020,745 $ 28,897 $ 28,897
First Quadrant L P Ca 2016-09-30 902,029 Added More 558,129 $ 15,800 $ 25,536
Panagora Asset Management Inc 2016-09-30 961,195 Added More 493,919 $ 13,982 $ 27,211
Emerald Acquisition Ltd 2016-09-30 614,332 Added More 366,667 $ 10,380 $ 17,391
Cornerstone Capital Management Holdings Llc 2016-09-30 934,118 Added More 309,567 $ 8,763 $ 26,444
Brandywine Global Investment Management Llc 2016-09-30 326,053 Added More 304,840 $ 8,630 $ 9,230
Sei Investments Co 2016-09-30 317,048 Added More 216,323 $ 6,124 $ 8,975
Hennessy Advisors Inc 2016-09-30 197,780 New Holding 197,780 $ 5,599 $ 5,599
Cortina Asset Management Llc 2016-09-30 161,375 New Holding 161,375 $ 4,568 $ 4,568
Parametric Portfolio Associates Llc 2016-09-30 536,056 Added More 157,006 $ 4,444 $ 15,175
Btim Corp 2016-09-30 927,824 Added More 152,247 $ 4,310 $ 26,266
Jupiter Asset Management Ltd 2016-09-30 150,000 New Holding 150,000 $ 4,246 $ 4,246
Nationwide Fund Advisors 2016-09-30 239,213 Added More 147,944 $ 4,188 $ 6,772
Ahl Partners Llp 2016-09-30 227,916 Added More 137,403 $ 3,889 $ 6,452
Her Majesty The Queen In Right Of The Province Of Alberta As 2016-09-30 161,200 Added More 123,100 $ 3,484 $ 4,563
Diam Co Ltd 2016-09-30 229,442 Added More 122,900 $ 3,479 $ 6,495
Convergence Investment Partners Llc 2016-09-30 159,207 Added More 107,782 $ 3,051 $ 4,507
Dimensional Fund Advisors Lp 2016-09-30 731,820 Added More 91,202 $ 2,581 $ 20,717
Stifel Financial Corp 2016-09-30 139,173 Added More 74,523 $ 2,109 $ 3,939
Babson Capital Management Llc 2016-09-30 113,084 Added More 55,100 $ 1,559 $ 3,201
Spark Investment Management Llc 2016-09-30 50,200 New Holding 50,200 $ 1,421 $ 1,421
Blackrock Inc 2016-09-30 188,258 Added More 44,020 $ 1,246 $ 5,329
Lombardia Capital Partners Llc 2016-09-30 541,207 Added More 42,095 $ 1,191 $ 15,321
Euclidean Technologies Management Llc 2016-09-30 66,829 Added More 41,329 $ 1,170 $ 1,891
Squarepoint Ops Llc 2016-09-30 40,117 New Holding 40,117 $ 1,135 $ 1,135
Great Lakes Advisors Llc 2016-09-30 252,113 Added More 35,491 $ 1,004 $ 7,137
Cadence Capital Management Llc 2016-09-30 60,695 Added More 35,021 $ 991 $ 1,718
Robeco Institutional Asset Management B V 2016-09-30 32,453 New Holding 32,453 $ 918 $ 918
Folger Hill Asset Management Lp 2016-09-30 31,557 New Holding 31,557 $ 893 $ 893
Summit Street Capital Management Llc 2016-09-30 28,212 New Holding 28,212 $ 798 $ 798
Martingale Asset Management L P 2016-09-30 172,115 Added More 28,039 $ 793 $ 4,872
Northern Trust Corp 2016-09-30 1,986,675 Added More 26,178 $ 741 $ 56,242
Twin Capital Management Inc 2016-09-30 76,880 Added More 24,750 $ 700 $ 2,176
Cypress Capital Group 2016-09-30 20,282 New Holding 20,282 $ 574 $ 574
New York State Common Retirement Fund 2016-09-30 501,930 Added More 19,109 $ 540 $ 14,209
Bluemountain Capital Management Llc 2016-09-30 33,525 Added More 17,747 $ 502 $ 949
Dekabank Deutsche Girozentrale 2016-09-30 162,854 Added More 14,241 $ 403 $ 4,610
State Of Tennessee Treasury Department 2016-09-30 42,880 Added More 13,378 $ 378 $ 1,213
Bluecrest Capital Management Ltd 2016-09-30 12,196 New Holding 12,196 $ 345 $ 345
Piedmont Investment Advisors Llc 2016-09-30 11,210 Added More 11,207 $ 317 $ 317
Liberty Mutual Group Asset Management Inc 2016-09-30 10,805 New Holding 10,805 $ 305 $ 305
Boothbay Fund Management Llc 2016-09-30 10,540 New Holding 10,540 $ 298 $ 298
Mitsubishi Ufj Kokusai Asset Management Co Ltd 2016-09-30 11,673 Added More 10,531 $ 298 $ 330
Envestnet Asset Management Inc 2016-09-30 30,093 Added More 10,431 $ 295 $ 851
Hutchin Hill Capital Lp 2016-09-30 60,800 Added More 10,300 $ 291 $ 1,721
Sg Americas Securities Llc 2016-09-30 25,427 Added More 8,762 $ 248 $ 719
Axa 2016-09-30 1,197,070 Added More 8,730 $ 247 $ 33,889
Rhumbline Advisers 2016-09-30 241,716 Added More 8,709 $ 246 $ 6,842
Parametrica Management Ltd 2016-09-30 8,400 New Holding 8,400 $ 237 $ 237
Northwestern Mutual Investment Management Company Llc 2016-09-30 12,901 Added More 7,940 $ 224 $ 365
Commonwealth Equity Services Inc 2016-09-30 7,792 New Holding 7,792 $ 220 $ 220
Capstone Investment Advisors Llc 2016-09-30 72,804 Added More 7,732 $ 218 $ 2,061
Synovus Financial Corp 2016-09-30 7,713 New Holding 7,713 $ 218 $ 218
Zweig-Dimenna Associates Llc 2016-09-30 7,700 New Holding 7,700 $ 217 $ 217
Keybank National Association Oh 2016-09-30 7,585 New Holding 7,585 $ 214 $ 214
First Midwest Bank Trust Division 2016-09-30 61,075 Added More 7,563 $ 214 $ 1,729
Quadrature Capital Ltd 2016-09-30 6,849 New Holding 6,849 $ 193 $ 193
Secor Capital Advisors Lp 2016-09-30 6,642 New Holding 6,642 $ 188 $ 188
Proshare Advisors Llc 2016-09-30 22,345 Added More 6,315 $ 178 $ 632
Jane Street Group Llc 2016-09-30 23,939 Added More 6,248 $ 176 $ 677
Blackrock Japan Co Ltd 2016-09-30 9,323 Added More 5,786 $ 163 $ 263
I G Investment Management Ltd 2016-09-30 30,935 Added More 5,315 $ 150 $ 875
Kempen Capital Management N V 2016-09-30 30,364 Added More 4,639 $ 131 $ 859
Public Sector Pension Investment Board 2016-09-30 28,997 Added More 4,300 $ 121 $ 820
Pinebridge Investments L P 2016-09-30 7,227 Added More 3,987 $ 112 $ 204
Cantab Capital Partners Llp 2016-09-30 3,594 New Holding 3,594 $ 101 $ 101
Piermont Capital Management Inc 2016-09-30 56,792 Added More 3,290 $ 93 $ 1,607
Integrated Wealth Management 2016-09-30 3,129 New Holding 3,129 $ 88 $ 88
Sentry Investment Management Llc 2016-09-30 2,819 New Holding 2,819 $ 79 $ 79
California State Teachers Retirement System 2016-09-30 276,451 Added More 2,300 $ 65 $ 7,826
Intrepid Capital Management Inc 2016-09-30 496,030 Added More 2,275 $ 64 $ 14,042
Hillsdale Investment Management Inc 2016-09-30 14,100 Added More 1,900 $ 53 $ 399
First New York Securities Llc Ny 2016-09-30 1,820 New Holding 1,820 $ 51 $ 51
Aperio Group Llc 2016-09-30 38,728 Added More 1,815 $ 51 $ 1,096
Hartford Investment Management Co 2016-09-30 45,105 Added More 1,759 $ 49 $ 1,276
Us Bancorp De 2016-09-30 17,378 Added More 1,531 $ 43 $ 491
Ladenburg Thalmann Financial Services Inc 2016-09-30 5,233 Added More 1,419 $ 40 $ 148
Pacer Advisors Inc 2016-09-30 15,500 Added More 1,356 $ 38 $ 438
New York Life Trust Co 2016-09-30 3,071 Added More 1,286 $ 36 $ 86
Cutler Group Lp 2016-09-30 7,566 Added More 1,266 $ 35 $ 214
Ifp Advisors Inc 2016-09-30 1,840 Added More 1,135 $ 32 $ 52
First Interstate Bank 2016-09-30 1,088 New Holding 1,088 $ 30 $ 30
Cornerstone Advisors Inc 2016-09-30 1,066 Added More 791 $ 22 $ 30
Finemark National Bank Trust 2016-09-30 768 New Holding 768 $ 21 $ 21
Columbia Partners L L C Investment Management 2016-09-30 48,918 Added More 732 $ 20 $ 1,384
Virtus Investment Advisers Inc 2016-09-30 689 New Holding 689 $ 19 $ 19
Meeder Asset Management Inc 2016-09-30 22,075 Added More 672 $ 19 $ 624
Next Financial Group Inc 2016-09-30 646 New Holding 646 $ 18 $ 18
Assetmark Inc 2016-09-30 4,820 Added More 619 $ 17 $ 136
Mitsubishi Ufj Securities Holdings Co Ltd 2016-09-30 610 New Holding 610 $ 17 $ 17
Advisor Group Inc 2016-09-30 1,709 Added More 593 $ 16 $ 48
Blackrock Investment Management Llc 2016-09-30 266,821 Added More 564 $ 15 $ 7,553
Grimes Company Inc 2016-09-30 93,795 Added More 509 $ 14 $ 2,655
Zurcher Kantonalbank Zurich Cantonalbank 2016-09-30 3,722 Added More 506 $ 14 $ 105
Cable Hill Partners Llc 2016-09-30 878 Added More 452 $ 12 $ 24
Pacad Investment Ltd 2016-09-30 21,900 Added More 441 $ 12 $ 619
Qs Investors Llc 2016-09-30 1,832 Added More 408 $ 11 $ 51
State Treasurer State Of Michigan 2016-09-30 45,512 Added More 400 $ 11 $ 1,288
Woodmont Investment Counsel Llc 2016-09-30 400 New Holding 400 $ 11 $ 11
Advantus Capital Management Inc 2016-09-30 12,800 Added More 303 $ 8 $ 362
Arizona State Retirement System 2016-09-30 32,154 Added More 300 $ 8 $ 910
Global X Management Co Llc 2016-09-30 270 Added More 252 $ 7 $ 7
Cognios Capital Llc 2016-09-30 9,801 Added More 249 $ 7 $ 277
World Asset Management Inc 2016-09-30 13,987 Added More 205 $ 5 $ 395
Acrospire Investment Management Llc 2016-09-30 8,200 Added More 200 $ 5 $ 232
Johnson Financial Group Inc 2016-09-30 1,033 Added More 200 $ 5 $ 29
Comerica Bank 2016-09-30 31,547 Added More 195 $ 5 $ 893
Springbok Capital Management Llc 2016-09-30 8,166 Added More 166 $ 4 $ 231
Alexandria Capital Llc 2016-09-30 491 Added More 140 $ 3 $ 13
Mason Street Advisors Llc 2016-09-30 17,640 Added More 129 $ 3 $ 499
Citizens Financial Group Inc Ri 2016-09-30 315 Added More 104 $ 2 $ 8
Reilly Financial Advisors Llc 2016-09-30 150 Added More 94 $ 2 $ 4
Financial Architects Inc 2016-09-30 82 New Holding 82 $ 2 $ 2
Capstone Asset Management Co 2016-09-30 9,808 Added More 70 $ 1 $ 277
Northwestern Mutual Wealth Management Co 2016-09-30 1,004 Added More 64 $ 1 $ 28
Arrowpoint Asset Management Llc 2016-09-30 47 New Holding 47 $ 1 $ 1
Penserra Capital Management Llc 2016-09-30 1,110 Added More 44 $ 1 $ 31
Ftb Advisors Inc 2016-09-30 439 Added More 30 $ 0 $ 12
Gateway Investment Advisers Llc 2016-09-30 9,348 Added More 29 $ 0 $ 264
Calamos Advisors Llc 2016-09-30 20,345 Added More 21 $ 0 $ 575
Commerce Bank 2016-09-30 11,238 Added More 20 $ 0 $ 318
Kistler-Tiffany Companies Llc 2016-09-30 12 New Holding 12 $ 0 $ 0
Salem Investment Counselors Inc 2016-09-30 6 New Holding 6 $ 0 $ 0
Kanaly Trust Co 2016-09-30 85 Added More 6 $ 0 $ 2
Employees Retirement System Of Texas 2016-09-30 16,000 No Change 0 $ 0 $ 452
Capital Guardian Trust Co 2016-09-30 64 No Change 0 $ 0 $ 1
Teachers Retirement System Of The State Of Kentucky 2016-09-30 20,500 No Change 0 $ 0 $ 580
Ogorek Anthony Joseph Ny Adv 2016-09-30 106 No Change 0 $ 0 $ 3
First Manhattan Co 2016-09-30 258 No Change 0 $ 0 $ 7
Valley National Advisers Inc 2016-09-30 4 No Change 0 $ 0 $ 0
Qualcomm Inc De 2016-09-30 268,800 No Change 0 $ 0 $ 7,609
James Investment Research Inc 2016-09-30 400 No Change 0 $ 0 $ 11
Amica Mutual Insurance Co 2016-09-30 15,227 No Change 0 $ 0 $ 431
Amica Pension Fund Board Of Trustees 2016-09-30 9,931 No Change 0 $ 0 $ 281
Guardian Life Insurance Co Of America 2016-09-30 492 No Change 0 $ 0 $ 13
Old Second National Bank Of Aurora 2016-09-30 205 No Change 0 $ 0 $ 5
Nisa Investment Advisors Llc 2016-09-30 23,804 No Change 0 $ 0 $ 673
Mufg Americas Holdings Corp 2016-09-30 157 No Change 0 $ 0 $ 4
Smithfield Trust Co 2016-09-30 1,225 No Change 0 $ 0 $ 34
United Services Automobile Association 2016-09-30 40,924 No Change 0 $ 0 $ 1,158
Enterprise Financial Services Corp 2016-09-30 255 No Change 0 $ 0 $ 7
Adirondack Trust Co 2016-09-30 67 No Change 0 $ 0 $ 1
Dreman Value Management L L C 2016-09-30 10,825 No Change 0 $ 0 $ 306
M R Capital Management Inc 2016-09-30 488 No Change 0 $ 0 $ 13
Brave Asset Management Inc 2016-09-30 424 No Change 0 $ 0 $ 12
Westport Advisers Llc 2016-06-30 265,000 No Change 0 $ 0 $ 6,643
Massmutual Trust Co Fsb Adv 2016-06-30 170 No Change 0 $ 0 $ 4
Whittier Trust Co 2016-09-30 141 No Change 0 $ 0 $ 3
Delta Lloyd Nv 2016-09-30 11,480 No Change 0 $ 0 $ 324
Country Trust Bank 2016-09-30 100 No Change 0 $ 0 $ 2
Farmers Merchants Investments Inc 2016-09-30 70 No Change 0 $ 0 $ 1
Pictet Asset Management Ltd 2016-09-30 20,936 No Change 0 $ 0 $ 592
Advisors Asset Management Inc 2016-09-30 600 No Change 0 $ 0 $ 16
Motco 2016-09-30 12 No Change 0 $ 0 $ 0
Ledyard National Bank 2016-09-30 100 No Change 0 $ 0 $ 2
North Star Investment Management Corp 2016-09-30 860 No Change 0 $ 0 $ 24
Azimuth Capital Management Llc 2016-09-30 10,300 No Change 0 $ 0 $ 291
Contravisory Investment Management Inc 2016-09-30 354 No Change 0 $ 0 $ 10
Manchester Capital Management Llc 2016-09-30 421 No Change 0 $ 0 $ 11
Hanson Doremus Investment Management 2016-09-30 8,333 No Change 0 $ 0 $ 235
Zions Bancorporation 2016-09-30 34 No Change 0 $ 0 $ 0
Parkside Financial Bank Trust 2016-09-30 10 No Change 0 $ 0 $ 0
Td Capital Management Llc 2016-09-30 25 No Change 0 $ 0 $ 0
American Research Management Co 2016-09-30 20 No Change 0 $ 0 $ 0
Jacobi Capital Management Llc 2016-09-30 72 No Change 0 $ 0 $ 2
Wfg Advisors Lp 2016-09-30 33 No Change 0 $ 0 $ 0
Skandinaviska Enskilda Banken Ab Publ 2016-09-30 10,380 No Change 0 $ 0 $ 293
Gradient Investments Llc 2016-09-30 213 No Change 0 $ 0 $ 6
Hudock Capital Group Llc 2016-09-30 10 No Change 0 $ 0 $ 0
Utah Retirement Systems 2016-09-30 23,488 No Change 0 $ 0 $ 664
Arga Investment Management Lp 2016-09-30 39,900 No Change 0 $ 0 $ 1,129
Nn Investment Partners Holdings N V 2016-09-30 4,441 No Change 0 $ 0 $ 125
Focused Wealth Management Inc 2016-09-30 76 No Change 0 $ 0 $ 2
Physicians Financial Services Inc 2016-09-30 130 No Change 0 $ 0 $ 3
Coconut Grove Bank 2016-09-30 312 No Change 0 $ 0 $ 8
Cranbrook Wealth Management Llc 2016-09-30 1 No Change 0 $ 0 $ 0
Vantage Investment Advisors Llc 2016-09-30 48 No Change 0 $ 0 $ 1
Amica Retiree Medical Trust 2016-09-30 1,395 No Change 0 $ 0 $ 39
Krilogy Financial Llc 2016-09-30 715 No Change 0 $ 0 $ 20
Archford Capital Strategies Llc 2016-09-30 37 No Change 0 $ 0 $ 1
Gemmer Asset Management Llc 2016-09-30 151 No Change 0 $ 0 $ 4
Quadrant Capital Group Llc 2016-09-30 273 No Change 0 $ 0 $ 7
Bruderman Asset Management Llc 2016-09-30 348 No Change 0 $ 0 $ 9
Park Avenue Institutional Advisers Llc 2016-06-30 838 No Change 0 $ 0 $ 21
Ropes Wealth Advisors Llc 2016-09-30 168 No Change 0 $ 0 $ 4
Bartlett Co Llc 2016-09-30 2,875 Sold Some -4 $ -0 $ 81
Cipher Capital Lp 2016-09-30 16,154 Sold Some -7 $ -0 $ 457
Cwm Llc 2016-09-30 36 Sold Some -8 $ -0 $ 1
Baldwin Brothers Inc Ma 2016-09-30 0 Sold All -10 $ -0 $ 0
Plante Moran Financial Advisors Llc 2016-09-30 0 Sold All -12 $ -0 $ 0
Hanson Mcclain Inc 2016-06-30 744 Sold Some -16 $ -0 $ 18
Advisory Services Network Llc 2016-09-30 653 Sold Some -18 $ -0 $ 18
Sandy Spring Bank 2016-09-30 0 Sold All -31 $ -0 $ 0
Bronfman E L Rothschild L P 2016-09-30 229 Sold Some -49 $ -1 $ 6
Highlander Capital Management Llc 2016-09-30 0 Sold All -60 $ -1 $ 0
Central Trust Co 2016-09-30 47 Sold Some -60 $ -1 $ 1
Loring Wolcott Coolidge Fiduciary Advisors Llp Ma 2016-09-30 0 Sold All -100 $ -2 $ 0
Benjamin F Edwards Company Inc 2016-09-30 400 Sold Some -150 $ -4 $ 11
Msi Financial Services Inc 2016-09-30 1,087 Sold Some -228 $ -6 $ 30
Exxonmobil Investment Management Inc Tx 2016-09-30 33,296 Sold Some -355 $ -10 $ 942
Ls Investment Advisors Llc 2016-09-30 4,435 Sold Some -357 $ -10 $ 125
Pnc Financial Services Group Inc 2016-09-30 6,957 Sold Some -545 $ -15 $ 196
Schwerin Boyle Capital Management Inc 2016-09-30 7,650 Sold Some -600 $ -16 $ 216
Verition Fund Management Llc 2016-09-30 9,739 Sold Some -640 $ -18 $ 275
Euclid Advisors Llc 2016-09-30 0 Sold All -680 $ -19 $ 0
Mutual Of America Capital Management Llc 2016-09-30 14,563 Sold Some -692 $ -19 $ 412
Burney Co 2016-09-30 11,341 Sold Some -727 $ -20 $ 321
Lucus Advisors Llc 2016-09-30 13,011 Sold Some -736 $ -20 $ 368
Jensen Investment Management Inc 2016-09-30 14,660 Sold Some -740 $ -20 $ 415
Ncm Capital Advisers Inc 2016-09-30 11,207 Sold Some -788 $ -22 $ 317
Shell Asset Management Co 2016-09-30 0 Sold All -865 $ -24 $ 0
Ibm Retirement Fund 2016-09-30 12,223 Sold Some -867 $ -24 $ 346
Fifth Third Bancorp 2016-09-30 2,607 Sold Some -885 $ -25 $ 73
Lingohr Partner Asset Management Gmbh 2016-09-30 46,224 Sold Some -1,000 $ -28 $ 1,308
Chevy Chase Trust Holdings Inc 2016-09-30 109,673 Sold Some -1,380 $ -39 $ 3,104
Creative Planning 2016-09-30 4,338 Sold Some -1,627 $ -46 $ 122
Aberdeen Asset Management Plc Uk 2016-09-30 100,733 Sold Some -1,765 $ -49 $ 2,851
Checchi Capital Advisers Llc 2016-09-30 0 Sold All -1,998 $ -56 $ 0
Grantham Mayo Van Otterloo Co Llc 2016-09-30 2,442,813 Sold Some -2,000 $ -56 $ 69,156
Texas Permanent School Fund 2016-09-30 40,158 Sold Some -2,020 $ -57 $ 1,136
New Mexico Educational Retirement Board 2016-09-30 13,198 Sold Some -2,100 $ -59 $ 373
Invictus Rg 2016-09-30 1,598 Sold Some -2,120 $ -60 $ 45
Fuller Thaler Asset Management Inc 2016-09-30 1,950 Sold Some -2,200 $ -62 $ 55
Aston Asset Management Llc 2016-06-30 81,287 Sold Some -2,560 $ -64 $ 2,037
Tlp Group Llc 2016-09-30 0 Sold All -2,280 $ -64 $ 0
Norinchukin Bank The 2016-09-30 62,668 Sold Some -2,603 $ -73 $ 1,774
Simmons Bank 2016-09-30 8,445 Sold Some -2,625 $ -74 $ 239
Tower Research Capital Llc Trc 2016-09-30 997 Sold Some -2,689 $ -76 $ 28
Guggenheim Capital Llc 2016-09-30 1,177,906 Sold Some -2,731 $ -77 $ 33,346
Commonwealth Bank Of Australia 2016-09-30 0 Sold All -2,900 $ -82 $ 0
Td Asset Management Inc 2016-09-30 49,123 Sold Some -3,000 $ -84 $ 1,390
Johnston Asset Management Llc 2016-09-30 270,150 Sold Some -3,000 $ -84 $ 7,647
Nomura Asset Management Co Ltd 2016-09-30 0 Sold All -3,020 $ -85 $ 0
Tredje Ap-Fonden 2016-09-30 0 Sold All -3,050 $ -86 $ 0
Hightower Advisors Llc 2016-09-30 39,299 Sold Some -3,410 $ -96 $ 1,112
Teacher Retirement System Of Texas 2016-09-30 13,983 Sold Some -3,985 $ -112 $ 395
Aviva Plc 2016-09-30 74,000 Sold Some -4,581 $ -129 $ 2,094
American International Group Inc 2016-09-30 45,673 Sold Some -4,614 $ -130 $ 1,293
Alambic Investment Management L P 2016-09-30 101,750 Sold Some -4,700 $ -133 $ 2,880
First Republic Investment Management Inc 2016-09-30 17,261 Sold Some -4,874 $ -137 $ 488
Meritage Portfolio Management 2016-09-30 152,779 Sold Some -4,936 $ -139 $ 4,325
M T Bank Corp 2016-09-30 7,187 Sold Some -5,149 $ -145 $ 203
Swiss National Bank 2016-09-30 208,859 Sold Some -6,400 $ -181 $ 5,912
Systematic Financial Management Lp 2016-09-30 58,300 Sold Some -6,440 $ -182 $ 1,650
Cibc Asset Management Inc 2016-09-30 10,931 Sold Some -7,192 $ -203 $ 309
Bessemer Group Inc 2016-09-30 0 Sold All -7,491 $ -212 $ 0
Amp Capital Investors Ltd 2016-09-30 87,287 Sold Some -7,841 $ -221 $ 2,471
Henderson Group Plc 2016-09-30 0 Sold All -8,223 $ -232 $ 0
Sumitomo Mitsui Trust Holdings Inc 2016-09-30 0 Sold All -8,383 $ -237 $ 0
Kcg Holdings Inc 2016-09-30 26,056 Sold Some -8,726 $ -247 $ 737
Highbridge Capital Management Llc 2016-09-30 0 Sold All -10,031 $ -283 $ 0
New York State Teachers Retirement System 2016-09-30 242,872 Sold Some -10,101 $ -285 $ 6,875
Menta Capital Llc 2016-09-30 10,200 Sold Some -10,200 $ -288 $ 288
Chicago Equity Partners Llc 2016-09-30 60,670 Sold Some -10,410 $ -294 $ 1,717
Algert Global Llc 2016-09-30 42,942 Sold Some -10,445 $ -295 $ 1,215
Dynamic Technology Lab Private Ltd 2016-09-30 6,803 Sold Some -10,784 $ -305 $ 192
Sciencast Management Lp 2016-09-30 0 Sold All -13,100 $ -370 $ 0
Tudor Investment Corp Et Al 2016-09-30 0 Sold All -14,860 $ -420 $ 0
Philadelphia Trust Co 2016-09-30 117,397 Sold Some -15,081 $ -426 $ 3,323
Princeton Alpha Management Lp 2016-09-30 27,097 Sold Some -15,860 $ -448 $ 767
Ellington Management Group Llc 2016-09-30 0 Sold All -16,900 $ -478 $ 0
Walleye Trading Llc 2016-09-30 95,000 Sold Some -17,300 $ -489 $ 2,689
Gsa Capital Partners Llp 2016-09-30 17,371 Sold Some -20,309 $ -574 $ 491
Bayesian Capital Management Lp 2016-09-30 0 Sold All -20,800 $ -588 $ 0
Spot Trading L L C 2016-09-30 38,900 Sold Some -23,900 $ -676 $ 1,101
Oregon Public Employees Retirement Fund 2016-09-30 13,727 Sold Some -24,074 $ -681 $ 388
Gwm Advisors Llc 2016-09-30 0 Sold All -25,120 $ -711 $ 0
Peak6 Investments L P 2016-09-30 75,878 Sold Some -26,502 $ -750 $ 2,148
Natixis Asset Management 2016-09-30 0 Sold All -27,551 $ -779 $ 0
Lombard Odier Asset Management Switzerland Sa 2016-09-30 0 Sold All -28,238 $ -799 $ 0
Quantbot Technologies Lp 2016-09-30 3,517 Sold Some -29,165 $ -825 $ 99
Hsbc Holdings Plc 2016-09-30 163,500 Sold Some -30,683 $ -868 $ 4,628
Airain Ltd 2016-09-30 0 Sold All -36,954 $ -1,046 $ 0
Fdo Partners Llc 2016-09-30 0 Sold All -38,079 $ -1,078 $ 0
Jacobs Levy Equity Management Inc 2016-09-30 0 Sold All -46,180 $ -1,307 $ 0
Lapides Asset Management Llc 2016-09-30 300,400 Sold Some -59,700 $ -1,690 $ 8,504
Leuthold Group Llc 2016-09-30 0 Sold All -63,856 $ -1,807 $ 0
Gam Holding Ag 2016-09-30 637,671 Sold Some -74,817 $ -2,118 $ 18,052
Stoneridge Investment Partners Llc 2016-09-30 159,354 Sold Some -78,491 $ -2,222 $ 4,511
Raymond James Associates 2016-09-30 34,844 Sold Some -84,179 $ -2,383 $ 986
Cubist Systematic Strategies Llc 2016-09-30 56,633 Sold Some -94,838 $ -2,684 $ 1,603
Gotham Asset Management Llc 2016-09-30 776,654 Sold Some -105,152 $ -2,976 $ 21,987
Old Mutual Global Investors Uk Ltd 2016-09-30 1,630,395 Sold Some -111,976 $ -3,170 $ 46,156
Stevens Capital Management Lp 2016-09-30 67,714 Sold Some -133,544 $ -3,780 $ 1,916
Clinton Group Inc 2016-09-30 0 Sold All -137,355 $ -3,888 $ 0
Retirement Systems Of Alabama 2016-09-30 900,951 Sold Some -150,325 $ -4,255 $ 25,505
Engineers Gate Manager Lp 2016-09-30 16,208 Sold Some -155,159 $ -4,392 $ 458
Westpac Banking Corp 2016-09-30 0 Sold All -158,651 $ -4,491 $ 0
Kornitzer Capital Management Inc Ks 2016-09-30 0 Sold All -190,330 $ -5,388 $ 0
Connor Clark Lunn Investment Management Ltd 2016-09-30 366,200 Sold Some -358,475 $ -10,148 $ 10,367
Teachers Advisors Inc 2016-09-30 223,144 Sold Some -398,026 $ -11,268 $ 6,317
Kbc Group Nv 2016-09-30 288,760 Sold Some -435,007 $ -12,315 $ 8,174
Empyrean Capital Partners Lp 2016-09-30 340,027 Sold Some -459,973 $ -13,021 $ 9,626
Legal General Group Plc 2016-09-30 101,703 Sold Some -509,806 $ -14,432 $ 2,879
Hotchkis Wiley Capital Management Llc 2016-09-30 3,019,911 Sold Some -528,800 $ -14,970 $ 85,493
Royal London Asset Management Ltd 2016-06-30 45,458 Sold Some -794,552 $ -19,919 $ 1,139
Fairpointe Capital Llc 2016-09-30 4,916,973 Sold Some -891,940 $ -25,250 $ 139,199
Pggm Investments 2016-09-30 0 Sold All -1,188,467 $ -33,645 $ 0
International Value Advisers Llc 2016-09-30 3,036,976 Sold Some -1,408,648 $ -39,878 $ 85,976